sensor_id;sensor_type;location;lat;lon;timestamp;temperature;humidity
53286;DHT22;39171;45.550;12.074;2023-02-01T00:05:09;14.30;53.90
53286;DHT22;39171;45.550;12.074;2023-02-01T00:11:11;14.30;54.00
53286;DHT22;39171;45.550;12.074;2023-02-01T00:17:12;14.20;54.10
53286;DHT22;39171;45.550;12.074;2023-02-01T00:23:14;14.20;54.30
53286;DHT22;39171;45.550;12.074;2023-02-01T00:29:16;14.20;54.30
53286;DHT22;39171;45.550;12.074;2023-02-01T00:35:18;14.20;54.70
53286;DHT22;39171;45.550;12.074;2023-02-01T00:41:19;14.10;54.60
53286;DHT22;39171;45.550;12.074;2023-02-01T00:47:20;14.00;54.80
53286;DHT22;39171;45.550;12.074;2023-02-01T00:53:22;14.00;54.70
53286;DHT22;39171;45.550;12.074;2023-02-01T00:59:23;14.00;54.60
53286;DHT22;39171;45.550;12.074;2023-02-01T01:05:24;13.90;54.70
53286;DHT22;39171;45.550;12.074;2023-02-01T01:11:29;13.80;54.90
53286;DHT22;39171;45.550;12.074;2023-02-01T01:17:31;13.80;55.00
53286;DHT22;39171;45.550;12.074;2023-02-01T01:23:32;13.80;55.00
53286;DHT22;39171;45.550;12.074;2023-02-01T01:29:33;13.70;55.40
53286;DHT22;39171;45.550;12.074;2023-02-01T01:35:35;13.70;55.20
53286;DHT22;39171;45.550;12.074;2023-02-01T01:41:36;13.70;55.30
53286;DHT22;39171;45.550;12.074;2023-02-01T01:47:48;13.70;55.50
53286;DHT22;39171;45.550;12.074;2023-02-01T01:54:02;13.60;55.90
53286;DHT22;39171;45.550;12.074;2023-02-01T02:12:48;13.50;56.00
53286;DHT22;39171;45.550;12.074;2023-02-01T02:18:54;13.50;56.00
53286;DHT22;39171;45.550;12.074;2023-02-01T02:37:25;13.50;56.10
53286;DHT22;39171;45.550;12.074;2023-02-01T02:43:34;13.40;56.50
53286;DHT22;39171;45.550;12.074;2023-02-01T02:49:58;13.40;56.30
53286;DHT22;39171;45.550;12.074;2023-02-01T02:56:22;13.40;56.90
53286;DHT22;39171;45.550;12.074;2023-02-01T03:02:43;13.30;57.40
53286;DHT22;39171;45.550;12.074;2023-02-01T03:09:04;13.30;57.50
53286;DHT22;39171;45.550;12.074;2023-02-01T03:15:08;13.30;57.80
53286;DHT22;39171;45.550;12.074;2023-02-01T03:21:13;13.30;57.70
53286;DHT22;39171;45.550;12.074;2023-02-01T03:33:34;13.20;56.70
53286;DHT22;39171;45.550;12.074;2023-02-01T03:39:41;13.20;56.60
53286;DHT22;39171;45.550;12.074;2023-02-01T03:45:46;13.10;56.50
53286;DHT22;39171;45.550;12.074;2023-02-01T03:51:48;13.10;56.60
53286;DHT22;39171;45.550;12.074;2023-02-01T03:57:52;13.00;56.80
53286;DHT22;39171;45.550;12.074;2023-02-01T04:03:55;13.00;57.20
53286;DHT22;39171;45.550;12.074;2023-02-01T04:09:56;13.00;57.50
53286;DHT22;39171;45.550;12.074;2023-02-01T04:15:57;12.90;57.20
53286;DHT22;39171;45.550;12.074;2023-02-01T04:21:59;12.80;57.20
53286;DHT22;39171;45.550;12.074;2023-02-01T04:28:00;12.80;57.50
53286;DHT22;39171;45.550;12.074;2023-02-01T04:34:01;12.80;57.20
53286;DHT22;39171;45.550;12.074;2023-02-01T04:40:03;12.70;57.20
53286;DHT22;39171;45.550;12.074;2023-02-01T04:46:04;12.70;57.30
53286;DHT22;39171;45.550;12.074;2023-02-01T04:52:05;12.70;57.30
53286;DHT22;39171;45.550;12.074;2023-02-01T04:58:07;12.70;58.30
53286;DHT22;39171;45.550;12.074;2023-02-01T05:04:08;12.70;58.00
53286;DHT22;39171;45.550;12.074;2023-02-01T05:10:09;12.70;57.70
53286;DHT22;39171;45.550;12.074;2023-02-01T05:16:10;12.60;57.80
53286;DHT22;39171;45.550;12.074;2023-02-01T05:22:12;12.70;58.30
53286;DHT22;39171;45.550;12.074;2023-02-01T05:28:13;12.60;58.60
53286;DHT22;39171;45.550;12.074;2023-02-01T05:34:14;12.60;58.40
53286;DHT22;39171;45.550;12.074;2023-02-01T05:40:16;12.60;58.60
53286;DHT22;39171;45.550;12.074;2023-02-01T05:46:17;12.60;58.80
53286;DHT22;39171;45.550;12.074;2023-02-01T05:52:18;12.60;59.00
53286;DHT22;39171;45.550;12.074;2023-02-01T05:58:20;12.60;59.00
53286;DHT22;39171;45.550;12.074;2023-02-01T06:04:21;12.70;58.80
53286;DHT22;39171;45.550;12.074;2023-02-01T06:10:22;13.00;58.00
53286;DHT22;39171;45.550;12.074;2023-02-01T06:16:23;13.30;57.70
53286;DHT22;39171;45.550;12.074;2023-02-01T06:22:25;13.60;57.10
53286;DHT22;39171;45.550;12.074;2023-02-01T06:28:26;13.80;56.40
53286;DHT22;39171;45.550;12.074;2023-02-01T06:34:31;14.00;55.80
53286;DHT22;39171;45.550;12.074;2023-02-01T06:40:32;14.10;55.10
53286;DHT22;39171;45.550;12.074;2023-02-01T06:46:33;14.20;55.10
53286;DHT22;39171;45.550;12.074;2023-02-01T06:52:35;14.30;54.70
53286;DHT22;39171;45.550;12.074;2023-02-01T06:58:37;14.50;54.20
53286;DHT22;39171;45.550;12.074;2023-02-01T07:04:39;14.50;54.00
53286;DHT22;39171;45.550;12.074;2023-02-01T07:10:41;14.60;53.90
53286;DHT22;39171;45.550;12.074;2023-02-01T07:16:42;14.70;53.60
53286;DHT22;39171;45.550;12.074;2023-02-01T07:22:43;14.70;53.30
53286;DHT22;39171;45.550;12.074;2023-02-01T07:28:44;14.80;53.10
53286;DHT22;39171;45.550;12.074;2023-02-01T07:34:46;14.80;53.10
53286;DHT22;39171;45.550;12.074;2023-02-01T07:40:47;14.90;52.80
53286;DHT22;39171;45.550;12.074;2023-02-01T07:46:49;15.00;52.50
53286;DHT22;39171;45.550;12.074;2023-02-01T07:52:50;15.00;52.30
53286;DHT22;39171;45.550;12.074;2023-02-01T07:58:52;15.10;52.10
53286;DHT22;39171;45.550;12.074;2023-02-01T08:04:54;15.10;52.10
53286;DHT22;39171;45.550;12.074;2023-02-01T08:11:02;15.20;51.90
53286;DHT22;39171;45.550;12.074;2023-02-01T08:17:04;15.20;51.80
53286;DHT22;39171;45.550;12.074;2023-02-01T08:23:07;15.20;51.60
53286;DHT22;39171;45.550;12.074;2023-02-01T08:29:08;15.30;51.50
53286;DHT22;39171;45.550;12.074;2023-02-01T08:35:11;15.30;51.20
53286;DHT22;39171;45.550;12.074;2023-02-01T08:41:14;15.40;51.20
53286;DHT22;39171;45.550;12.074;2023-02-01T08:47:15;15.50;51.10
53286;DHT22;39171;45.550;12.074;2023-02-01T08:53:16;15.50;50.90
53286;DHT22;39171;45.550;12.074;2023-02-01T08:59:18;15.60;51.00
53286;DHT22;39171;45.550;12.074;2023-02-01T09:05:19;15.70;51.00
53286;DHT22;39171;45.550;12.074;2023-02-01T09:11:23;15.70;51.00
53286;DHT22;39171;45.550;12.074;2023-02-01T09:17:28;15.70;50.80
53286;DHT22;39171;45.550;12.074;2023-02-01T09:23:30;15.80;50.70
53286;DHT22;39171;45.550;12.074;2023-02-01T09:29:31;15.90;50.70
53286;DHT22;39171;45.550;12.074;2023-02-01T09:35:32;16.00;50.60
53286;DHT22;39171;45.550;12.074;2023-02-01T09:47:43;16.10;50.20
53286;DHT22;39171;45.550;12.074;2023-02-01T09:53:48;16.10;50.10
53286;DHT22;39171;45.550;12.074;2023-02-01T09:59:54;16.20;50.10
53286;DHT22;39171;45.550;12.074;2023-02-01T10:25:08;16.40;49.60
53286;DHT22;39171;45.550;12.074;2023-02-01T10:31:28;16.40;49.60
53286;DHT22;39171;45.550;12.074;2023-02-01T10:37:34;16.50;49.40
53286;DHT22;39171;45.550;12.074;2023-02-01T10:43:35;16.50;49.20
53286;DHT22;39171;45.550;12.074;2023-02-01T10:55:53;16.60;48.90
53286;DHT22;39171;45.550;12.074;2023-02-01T11:02:00;16.70;48.80
53286;DHT22;39171;45.550;12.074;2023-02-01T11:08:02;16.70;48.80
53286;DHT22;39171;45.550;12.074;2023-02-01T11:14:14;16.80;48.70
53286;DHT22;39171;45.550;12.074;2023-02-01T11:20:16;16.70;48.60
53286;DHT22;39171;45.550;12.074;2023-02-01T11:26:22;16.80;48.60
53286;DHT22;39171;45.550;12.074;2023-02-01T11:32:24;16.90;48.60
53286;DHT22;39171;45.550;12.074;2023-02-01T11:38:30;16.90;48.50
53286;DHT22;39171;45.550;12.074;2023-02-01T11:44:33;17.00;48.40
53286;DHT22;39171;45.550;12.074;2023-02-01T11:50:44;17.00;48.20
53286;DHT22;39171;45.550;12.074;2023-02-01T12:02:57;17.00;48.30
53286;DHT22;39171;45.550;12.074;2023-02-01T12:15:26;17.00;48.20
53286;DHT22;39171;45.550;12.074;2023-02-01T12:34:14;16.80;48.50
53286;DHT22;39171;45.550;12.074;2023-02-01T12:46:36;16.80;48.50
53286;DHT22;39171;45.550;12.074;2023-02-01T12:52:39;17.00;48.40
53286;DHT22;39171;45.550;12.074;2023-02-01T12:58:48;17.00;48.40
53286;DHT22;39171;45.550;12.074;2023-02-01T13:05:03;17.20;48.30
53286;DHT22;39171;45.550;12.074;2023-02-01T13:11:16;17.20;48.20
53286;DHT22;39171;45.550;12.074;2023-02-01T13:17:23;17.30;48.00
53286;DHT22;39171;45.550;12.074;2023-02-01T13:23:33;17.40;48.10
53286;DHT22;39171;45.550;12.074;2023-02-01T13:29:38;17.40;47.90
53286;DHT22;39171;45.550;12.074;2023-02-01T13:41:52;17.60;47.80
53286;DHT22;39171;45.550;12.074;2023-02-01T13:48:00;17.60;47.50
53286;DHT22;39171;45.550;12.074;2023-02-01T13:54:03;17.60;47.30
53286;DHT22;39171;45.550;12.074;2023-02-01T14:00:06;17.70;48.00
53286;DHT22;39171;45.550;12.074;2023-02-01T14:06:40;17.70;48.00
53286;DHT22;39171;45.550;12.074;2023-02-01T14:12:45;17.80;47.80
53286;DHT22;39171;45.550;12.074;2023-02-01T14:24:54;17.80;47.50
53286;DHT22;39171;45.550;12.074;2023-02-01T14:30:56;17.80;47.70
53286;DHT22;39171;45.550;12.074;2023-02-01T14:36:59;18.00;47.40
53286;DHT22;39171;45.550;12.074;2023-02-01T14:43:01;18.00;47.50
53286;DHT22;39171;45.550;12.074;2023-02-01T14:49:02;18.00;47.20
53286;DHT22;39171;45.550;12.074;2023-02-01T15:01:40;18.00;47.10
53286;DHT22;39171;45.550;12.074;2023-02-01T15:07:48;17.90;47.10
53286;DHT22;39171;45.550;12.074;2023-02-01T15:13:50;17.80;47.10
53286;DHT22;39171;45.550;12.074;2023-02-01T15:19:55;17.70;47.20
53286;DHT22;39171;45.550;12.074;2023-02-01T15:25:57;17.60;47.50
53286;DHT22;39171;45.550;12.074;2023-02-01T15:31:59;17.50;47.50
53286;DHT22;39171;45.550;12.074;2023-02-01T15:50:32;17.30;47.80
53286;DHT22;39171;45.550;12.074;2023-02-01T15:56:39;17.30;47.90
